Resolute Bay Airport

CYRB | YRB

Resolute Bay , Nunavut , Canada

Thursday, October 24th, 2019 | 00:02

Weather

CYRB 240400Z 16015KT 3SM -SN OVC011 M09/M10 A2974 RMK SC8 SLP081

Charts

No Charts Available

Gates

No Gates Available

Runways

1 Available

Events

No events for this airport


New event